Observation data for Plainview on 05/26/2019      Previous  Date  Next       Current Mesonet Observations  Soil Data  Daily Summary Page  Observations in Plain Language
KPVS 260500Z 17009KT 20/19 A2996 RMK A01 T02030187  RH  093%=      5-min Rain = 0
KPVS 260505Z 17008KT 20/19 A2996 RMK A01 T02030186  RH  093%=      5-min Rain = 0
KPVS 260510Z 17008KT 20/19 A2996 RMK A01 T02020186  RH  093%=      5-min Rain = 0
KPVS 260515Z 17008KT 20/19 A2996 RMK A01 T02010186  RH  093%=      5-min Rain = 0
KPVS 260520Z 17007KT 20/19 A2996 RMK A01 T02010185  RH  093%=      5-min Rain = 0
KPVS 260525Z 17007KT 20/19 A2996 RMK A01 T02000185  RH  093%=      5-min Rain = 0
KPVS 260530Z 17007KT 20/18 A2996 RMK A01 T01990184  RH  093%=      5-min Rain = 0
KPVS 260535Z 16007KT 20/18 A2996 RMK A01 T01980184  RH  094%=      5-min Rain = 0
KPVS 260540Z 17006KT 20/18 A2996 RMK A01 T01980184  RH  094%=      5-min Rain = 0
KPVS 260545Z 16006KT 20/18 A2996 RMK A01 T01970183  RH  094%=      5-min Rain = 0
KPVS 260550Z 17006KT 20/18 A2996 RMK A01 T01960182  RH  094%=      5-min Rain = 0
KPVS 260555Z 17006KT 20/18 A2996 RMK A01 T01950182  RH  095%=      5-min Rain = 0
KPVS 260600Z 17006KT 19/18 A2996 RMK A01 T01940181  RH  095%=      5-min Rain = 0
KPVS 260605Z 17005KT 19/18 A2997 RMK A01 T01930181  RH  095%=      5-min Rain = 0
KPVS 260610Z 17005KT 19/18 A2997 RMK A01 T01930181  RH  095%=      5-min Rain = 0
KPVS 260615Z 17006KT 19/18 A2997 RMK A01 T01920181  RH  095%=      5-min Rain = 0
KPVS 260620Z 17006KT 19/18 A2997 RMK A01 T01920180  RH  095%=      5-min Rain = 0
KPVS 260625Z 17005KT 19/18 A2997 RMK A01 T01910180  RH  096%=      5-min Rain = 0
KPVS 260630Z 17005KT 19/18 A2997 RMK A01 T01900180  RH  096%=      5-min Rain = 0
KPVS 260635Z 16005KT 19/18 A2997 RMK A01 T01900179  RH  096%=      5-min Rain = 0
KPVS 260640Z 15004KT 19/18 A2997 RMK A01 T01890179  RH  096%=      5-min Rain = 0
KPVS 260645Z 15004KT 19/18 A2997 RMK A01 T01880178  RH  096%=      5-min Rain = 0
KPVS 260650Z 16004KT 19/18 A2997 RMK A01 T01880178  RH  097%=      5-min Rain = 0
KPVS 260655Z 17003KT 19/18 A2997 RMK A01 T01860177  RH  097%=      5-min Rain = 0
KPVS 260700Z 17004KT 19/18 A2997 RMK A01 T01850176  RH  097%=      5-min Rain = 0
KPVS 260705Z 17004KT 18/18 A2997 RMK A01 T01830175  RH  097%=      5-min Rain = 0
KPVS 260710Z 18004KT 18/18 A2997 RMK A01 T01820175  RH  098%=      5-min Rain = 0
KPVS 260715Z 18005KT 18/17 A2996 RMK A01 T01810174  RH  098%=      5-min Rain = 0
KPVS 260720Z 18005KT 18/17 A2996 RMK A01 T01800173  RH  098%=      5-min Rain = 0
KPVS 260725Z 17004KT 18/17 A2997 RMK A01 T01790172  RH  098%=      5-min Rain = 0
KPVS 260730Z 17004KT 18/17 A2997 RMK A01 T01780172  RH  099%=      5-min Rain = 0
KPVS 260735Z 16004KT 18/17 A2997 RMK A01 T01780172  RH  099%=      5-min Rain = 0
KPVS 260740Z 15004KT 18/17 A2997 RMK A01 T01780172  RH  099%=      5-min Rain = 0
KPVS 260745Z 16003KT 18/17 A2997 RMK A01 T01780173  RH  099%=      5-min Rain = 0
KPVS 260750Z 16003KT 18/17 A2997 RMK A01 T01780173  RH  099%=      5-min Rain = 0
KPVS 260755Z 15003KT 18/17 A2997 RMK A01 T01770172  RH  099%=      5-min Rain = 0
KPVS 260800Z 14003KT 18/17 A2997 RMK A01 T01770172  RH  099%=      5-min Rain = 0
KPVS 260805Z 12004KT 18/17 A2997 RMK A01 T01770172  RH  099%=      5-min Rain = 0
KPVS 260810Z 10004KT 18/17 A2998 RMK A01 T01760171  RH  099%=      5-min Rain = 0
KPVS 260815Z 11004KT 17/17 A2998 RMK A01 T01740170  RH  099%=      5-min Rain = 0
KPVS 260820Z 12004KT 17/17 A2998 RMK A01 T01730168  RH  099%=      5-min Rain = 0
KPVS 260825Z 13004KT 17/17 A2997 RMK A01 T01720168  RH  100%=      5-min Rain = 0
KPVS 260830Z 13005KT 17/17 A2997 RMK A01 T01720169  RH  100%=      5-min Rain = 0
KPVS 260835Z 14005KT 17/17 A2997 RMK A01 T01730169  RH  100%=      5-min Rain = 0
KPVS 260840Z 14005KT 17/17 A2997 RMK A01 T01730170  RH  100%=      5-min Rain = 0
KPVS 260845Z 14006KT 17/17 A2997 RMK A01 T01740170  RH  100%=      5-min Rain = 0
KPVS 260850Z 14006KT 17/17 A2997 RMK A01 T01740170  RH  100%=      5-min Rain = 0
KPVS 260855Z 14006KT 17/17 A2997 RMK A01 T01740170  RH  100%=      5-min Rain = 0
KPVS 260900Z 13005KT 17/17 A2997 RMK A01 T01740170  RH  100%=      5-min Rain = 0
KPVS 260905Z 14005KT 17/17 A2997 RMK A01 T01730169  RH  100%=      5-min Rain = 0
KPVS 260910Z 14005KT 17/17 A2997 RMK A01 T01720169  RH  100%=      5-min Rain = 0
KPVS 260915Z 14005KT 17/17 A2997 RMK A01 T01720168  RH  100%=      5-min Rain = 0
KPVS 260920Z 14005KT 17/17 A2997 RMK A01 T01710167  RH  100%=      5-min Rain = 0
KPVS 260925Z 14005KT 17/17 A2997 RMK A01 T01710167  RH  100%=      5-min Rain = 0
KPVS 260930Z 14005KT 17/17 A2997 RMK A01 T01710168  RH  100%=      5-min Rain = 0
KPVS 260935Z 15005KT 17/17 A2997 RMK A01 T01720169  RH  100%=      5-min Rain = 0
KPVS 260940Z 14005KT 17/17 A2997 RMK A01 T01730169  RH  100%=      5-min Rain = 0
KPVS 260945Z 14004KT 17/17 A2997 RMK A01 T01720169  RH  100%=      5-min Rain = 0
KPVS 260950Z 14005KT 17/17 A2997 RMK A01 T01720168  RH  100%=      5-min Rain = 0
KPVS 260955Z 14005KT 17/17 A2997 RMK A01 T01710168  RH  100%=      5-min Rain = 0
KPVS 261000Z 15005KT 17/17 A2997 RMK A01 T01710168  RH  100%=      5-min Rain = 0
KPVS 261005Z 15005KT 17/17 A2997 RMK A01 T01710168  RH  100%=      5-min Rain = 0
KPVS 261010Z 16005KT 17/17 A2998 RMK A01 T01720168  RH  100%=      5-min Rain = 0
KPVS 261015Z 16006KT 17/17 A2998 RMK A01 T01720169  RH  100%=      5-min Rain = 0
KPVS 261020Z 15006KT 17/17 A2997 RMK A01 T01730169  RH  100%=      5-min Rain = 0
KPVS 261025Z 15006KT 17/17 A2998 RMK A01 T01740170  RH  100%=      5-min Rain = 0
KPVS 261030Z 14006KT 18/17 A2998 RMK A01 T01750171  RH  100%=      5-min Rain = 0
KPVS 261035Z 14006KT 18/17 A2998 RMK A01 T01760172  RH  100%=      5-min Rain = 0
KPVS 261040Z 15006KT 18/17 A2998 RMK A01 T01770174  RH  100%=      5-min Rain = 0
KPVS 261045Z 16005KT 18/18 A2999 RMK A01 T01780175  RH  100%=      5-min Rain = 0
KPVS 261050Z 16004KT 18/18 A2999 RMK A01 T01790175  RH  100%=      5-min Rain = 0
KPVS 261055Z 15004KT 18/18 A2999 RMK A01 T01800176  RH  100%=      5-min Rain = 0
KPVS 261100Z 14005KT 18/18 A2999 RMK A01 T01810177  RH  100%=      5-min Rain = 0
KPVS 261105Z 14005KT 18/18 A2999 RMK A01 T01810177  RH  100%=      5-min Rain = 0
KPVS 261110Z 14005KT 18/18 A2999 RMK A01 T01820178  RH  100%=      5-min Rain = 0
KPVS 261115Z 14004KT 18/18 A2999 RMK A01 T01820178  RH  100%=      5-min Rain = 0
KPVS 261120Z 14005KT 18/18 A2999 RMK A01 T01820178  RH  100%=      5-min Rain = 0
KPVS 261125Z 14005KT 18/18 A2999 RMK A01 T01830179  RH  100%=      5-min Rain = 0
KPVS 261130Z 14005KT 18/18 A2999 RMK A01 T01830179  RH  100%=      5-min Rain = 0
KPVS 261135Z 14005KT 18/18 A2999 RMK A01 T01840179  RH  100%=      5-min Rain = 0
KPVS 261140Z 15005KT 18/18 A2999 RMK A01 T01840180  RH  100%=      5-min Rain = 0
KPVS 261145Z 14005KT 18/18 A2999 RMK A01 T01840180  RH  100%=      5-min Rain = 0
KPVS 261150Z 15005KT 19/18 A30 RMK A01 T01850181  RH  100%=      5-min Rain = 0
KPVS 261155Z 15005KT 19/18 A30 RMK A01 T01860182  RH  100%=      5-min Rain = 0
KPVS 261200Z 15006KT 19/18 A30 RMK A01 T01870182  RH  100%=      5-min Rain = 0
KPVS 261205Z 15006KT 19/18 A30 RMK A01 T01870183  RH  100%=      5-min Rain = 0
KPVS 261210Z 15006KT 19/18 A30 RMK A01 T01880183  RH  100%=      5-min Rain = 0
KPVS 261215Z 16006KT 19/18 A30 RMK A01 T01880184  RH  100%=      5-min Rain = 0
KPVS 261220Z 16006KT 19/19 A30 RMK A01 T01890185  RH  100%=      5-min Rain = 0
KPVS 261225Z 16006KT 19/19 A30 RMK A01 T01890185  RH  100%=      5-min Rain = 0
KPVS 261230Z 15007KT 19/19 A30 RMK A01 T01900185  RH  100%=      5-min Rain = 0
KPVS 261235Z 16006KT 19/19 A30 RMK A01 T01900186  RH  100%=      5-min Rain = 0
KPVS 261240Z 16007KT 19/19 A30 RMK A01 T01910186  RH  100%=      5-min Rain = 0
KPVS 261245Z 15008KT 19/19 A30 RMK A01 T01910187  RH  099%=      5-min Rain = 0
KPVS 261250Z 15007KT 19/19 A30 RMK A01 T01920187  RH  099%=      5-min Rain = 0
KPVS 261255Z 15008KT 19/19 A30 RMK A01 T01920187  RH  099%=      5-min Rain = 0
KPVS 261300Z 15007KT 19/19 A30 RMK A01 T01930187  RH  099%=      5-min Rain = 0
KPVS 261305Z 16008KT 19/19 A30 RMK A01 T01930187  RH  099%=      5-min Rain = 0
KPVS 261310Z 15007KT 19/19 A30 RMK A01 T01930187  RH  099%=      5-min Rain = 0
KPVS 261315Z 15008KT 19/19 A30 RMK A01 T01930188  RH  099%=      5-min Rain = 0
KPVS 261320Z 15007G12KT 19/19 A30 RMK A01 T01940188  RH  099%=      5-min Rain = 0
KPVS 261325Z 15006KT 19/19 A30 RMK A01 T01940188  RH  099%=      5-min Rain = 0
KPVS 261330Z 15007KT 19/19 A30 RMK A01 T01940189  RH  099%=      5-min Rain = 0
KPVS 261335Z 15007KT 20/19 A3001 RMK A01 T01950189  RH  099%=      5-min Rain = 0
KPVS 261340Z 15007KT 20/19 A3001 RMK A01 T01950189  RH  099%=      5-min Rain = 0
KPVS 261345Z 15007KT 20/19 A3001 RMK A01 T01950189  RH  099%=      5-min Rain = 0
KPVS 261350Z 15009KT 20/19 A3001 RMK A01 T01950189  RH  099%=      5-min Rain = 0
KPVS 261355Z 15007KT 20/19 A3001 RMK A01 T01950189  RH  099%=      5-min Rain = 0
KPVS 261400Z 15007KT 20/19 A3001 RMK A01 T01960190  RH  099%=      5-min Rain = 0
KPVS 261405Z 15009KT 20/19 A3001 RMK A01 T01960190  RH  099%=      5-min Rain = 0
KPVS 261410Z 14007KT 20/19 A3002 RMK A01 T01970190  RH  099%=      5-min Rain = 0
KPVS 261415Z 14008KT 20/19 A3002 RMK A01 T01980191  RH  099%=      5-min Rain = 0
KPVS 261420Z 14009G14KT 20/19 A3002 RMK A01 T01980191  RH  098%=      5-min Rain = 0
KPVS 261425Z 15008KT 20/19 A3002 RMK A01 T01980191  RH  098%=      5-min Rain = 0
KPVS 261430Z 16008G14KT 20/19 A3002 RMK A01 T01980191  RH  098%=      5-min Rain = 0
KPVS 261435Z 16008G13KT 20/19 A3003 RMK A01 T01990191  RH  098%=      5-min Rain = 0
KPVS 261440Z 16008KT 20/19 A3002 RMK A01 T01990191  RH  098%=      5-min Rain = 0
KPVS 261445Z 16008KT 20/19 A3002 RMK A01 T01990191  RH  098%=      5-min Rain = 0
KPVS 261450Z 16008G13KT 20/19 A3003 RMK A01 T01990191  RH  097%=      5-min Rain = 0
KPVS 261455Z 16008KT 20/19 A3003 RMK A01 T02000192  RH  097%=      5-min Rain = 0
KPVS 261500Z 16010G15KT 20/19 A3003 RMK A01 T02010192  RH  097%=      5-min Rain = 0
KPVS 261505Z 16009G14KT 20/19 A3003 RMK A01 T02020192  RH  096%=      5-min Rain = 0
KPVS 261510Z 16010KT 20/19 A3002 RMK A01 T02030192  RH  096%=      5-min Rain = 0
KPVS 261515Z 16011KT 20/19 A3002 RMK A01 T02020191  RH  096%=      5-min Rain = 0
KPVS 261520Z 16010G15KT 20/19 A3002 RMK A01 T02020191  RH  096%=      5-min Rain = 0
KPVS 261525Z 16010KT 20/19 A3002 RMK A01 T02020191  RH  096%=      5-min Rain = 0
KPVS 261530Z 16009G14KT 20/19 A3002 RMK A01 T02020191  RH  096%=      5-min Rain = 0
KPVS 261535Z 16010KT 20/19 A3001 RMK A01 T02020191  RH  096%=      5-min Rain = 0
KPVS 261540Z 15009KT 20/19 A3001 RMK A01 T02030192  RH  096%=      5-min Rain = 0
KPVS 261545Z 16010KT 20/19 A3002 RMK A01 T02030192  RH  096%=      5-min Rain = 0
KPVS 261550Z 16011KT 20/19 A3001 RMK A01 T02020191  RH  096%=      5-min Rain = 0
KPVS 261555Z 16010G15KT 20/19 A3001 RMK A01 T02010191  RH  096%=      5-min Rain = 0
KPVS 261600Z 16009G15KT 20/19 A3001 RMK A01 T02010191  RH  096%=      5-min Rain = 0
KPVS 261605Z 16008KT 20/19 A3001 RMK A01 T02010191  RH  097%=      5-min Rain = 0
KPVS 261610Z 16009G14KT 20/19 A3001 RMK A01 T02000191  RH  097%=      5-min Rain = 0
KPVS 261615Z 15009G14KT 20/19 A3001 RMK A01 T01990191  RH  097%=      5-min Rain = 0
KPVS 261620Z 15007KT 20/19 A3001 RMK A01 T01980191  RH  098%=      5-min Rain = 0
KPVS 261625Z 15011KT 20/19 A3001 RMK A01 T01970190  RH  098%=      5-min Rain = 0
KPVS 261630Z 15009G14KT 20/19 A3001 RMK A01 T01960189  RH  099%=      5-min Rain = 0
KPVS 261635Z 16009G15KT 20/19 A3001 RMK A01 T01960190  RH  099%=      5-min Rain = 0
KPVS 261640Z 15009G14KT 20/19 A3001 RMK A01 T01960190  RH  099%=      5-min Rain = 0
KPVS 261645Z 15008KT 20/19 A3002 RMK A01 T01960190  RH  099%=      5-min Rain = 0
KPVS 261650Z 15008G13KT 20/19 A3001 RMK A01 T01960191  RH  099%=      5-min Rain = 0
KPVS 261655Z 15009KT 20/19 A3001 RMK A01 T01960190  RH  099%=      5-min Rain = 0
KPVS 261700Z 16010KT 20/19 A3001 RMK A01 T01960191  RH  099%=      5-min Rain = 0
KPVS 261705Z 16009KT 20/19 A3001 RMK A01 T01960191  RH  099%=      5-min Rain = 0
KPVS 261710Z 15010KT 20/19 A3001 RMK A01 T01970191  RH  099%=      5-min Rain = 0
KPVS 261715Z 15009G14KT 20/19 A3001 RMK A01 T01970191  RH  099%=      5-min Rain = 0
KPVS 261720Z 16008KT 20/19 A3001 RMK A01 T01980192  RH  099%=      5-min Rain = 0
KPVS 261725Z 15010G16KT 20/19 A3001 RMK A01 T01980192  RH  099%=      5-min Rain = 0
KPVS 261730Z 15009G15KT 20/19 A3001 RMK A01 T01980192  RH  099%=      5-min Rain = 0
KPVS 261735Z 15009G14KT 20/19 A3001 RMK A01 T01990192  RH  098%=      5-min Rain = 0
KPVS 261740Z 16009KT 20/19 A3001 RMK A01 T01990192  RH  098%=      5-min Rain = 0
KPVS 261745Z 16010KT 20/19 A3001 RMK A01 T01990192  RH  098%=      5-min Rain = 0
KPVS 261750Z 15010G15KT 20/19 A3001 RMK A01 T01990191  RH  098%=      5-min Rain = 0
KPVS 261755Z 15010G15KT 20/19 A3001 RMK A01 T02000191  RH  097%=      5-min Rain = 0
KPVS 261800Z 15010KT 20/19 A3001 RMK A01 T02000191  RH  097%=      5-min Rain = 0
KPVS 261805Z 15010G16KT 20/19 A30 RMK A01 T01990190  RH  097%=      5-min Rain = 0
KPVS 261810Z 16009KT 20/19 A30 RMK A01 T01990191  RH  097%=      5-min Rain = 0
KPVS 261815Z 16011G16KT 20/19 A30 RMK A01 T02000190  RH  097%=      5-min Rain = 0
KPVS 261820Z 16009G14KT 20/19 A3001 RMK A01 T02010191  RH  097%=      5-min Rain = 0
KPVS 261825Z 16011G17KT 20/19 A30 RMK A01 T02010191  RH  096%=      5-min Rain = 0
KPVS 261830Z 15008G13KT 20/19 A30 RMK A01 T02030192  RH  096%=      5-min Rain = 0
KPVS 261835Z 15012G17KT 20/19 A30 RMK A01 T02030191  RH  095%=      5-min Rain = 0
KPVS 261840Z 15013G18KT 20/19 A30 RMK A01 T02040190  RH  094%=      5-min Rain = 0
KPVS 261845Z 16011G16KT 20/19 A30 RMK A01 T02030190  RH  095%=      5-min Rain = 0
KPVS 261850Z 16009KT 20/19 A30 RMK A01 T02040191  RH  095%=      5-min Rain = 0
KPVS 261855Z 16011KT 21/19 A3001 RMK A01 T02050192  RH  095%=      5-min Rain = 0
KPVS 261900Z 17012G18KT 21/19 A3001 RMK A01 T02060192  RH  094%=      5-min Rain = 0
KPVS 261905Z 17013KT 21/19 A3001 RMK A01 T02060192  RH  094%=      5-min Rain = 0
KPVS 261910Z 17012KT 21/19 A3001 RMK A01 T02070192  RH  093%=      5-min Rain = 0
KPVS 261915Z 18011G16KT 21/19 A3001 RMK A01 T02090192  RH  093%=      5-min Rain = 0
KPVS 261920Z 18012G17KT 21/19 A3002 RMK A01 T02100192  RH  092%=      5-min Rain = 0
KPVS 261925Z 18012G19KT 21/19 A3001 RMK A01 T02110192  RH  092%=      5-min Rain = 0
KPVS 261930Z 17011KT 21/19 A3001 RMK A01 T02120193  RH  092%=      5-min Rain = 0
KPVS 261935Z 17012G17KT 21/19 A3001 RMK A01 T02120193  RH  091%=      5-min Rain = 0
KPVS 261940Z 17013G18KT 21/19 A3001 RMK A01 T02120193  RH  091%=      5-min Rain = 0
KPVS 261945Z 17013KT 21/19 A30 RMK A01 T02130194  RH  091%=      5-min Rain = 0
KPVS 261950Z 16012G18KT 22/19 A30 RMK A01 T02150194  RH  090%=      5-min Rain = 0
KPVS 261955Z 16012G17KT 22/20 A30 RMK A01 T02180196  RH  090%=      5-min Rain = 0
KPVS 262000Z 16015G21KT 22/20 A30 RMK A01 T02180195  RH  089%=      5-min Rain = 0
KPVS 262005Z 17012G17KT 22/20 A30 RMK A01 T02210195  RH  088%=      5-min Rain = 0
KPVS 262010Z 16014G20KT 22/19 A30 RMK A01 T02210194  RH  087%=      5-min Rain = 0
KPVS 262015Z 17014KT 22/19 A30 RMK A01 T02210194  RH  087%=      5-min Rain = 0
KPVS 262020Z 16014G19KT 22/19 A30 RMK A01 T02210194  RH  087%=      5-min Rain = 0
KPVS 262025Z 17013G18KT 22/19 A2999 RMK A01 T02210193  RH  086%=      5-min Rain = 0
KPVS 262030Z 17011G18KT 22/19 A2999 RMK A01 T02210193  RH  087%=      5-min Rain = 0
KPVS 262035Z 17013G18KT 22/19 A2999 RMK A01 T02210193  RH  086%=      5-min Rain = 0
KPVS 262040Z 16011G17KT 22/19 A2999 RMK A01 T02210194  RH  087%=      5-min Rain = 0
KPVS 262045Z 16012G18KT 22/19 A2998 RMK A01 T02200192  RH  087%=      5-min Rain = 0
KPVS 262050Z 15010G17KT 22/19 A2997 RMK A01 T02200194  RH  087%=      5-min Rain = 0
KPVS 262055Z 15011G17KT 22/19 A2997 RMK A01 T02190193  RH  088%=      5-min Rain = 0
KPVS 262100Z 15011G16KT 22/19 A2997 RMK A01 T02200194  RH  088%=      5-min Rain = 0
KPVS 262105Z 15011G17KT 22/19 A2997 RMK A01 T02210194  RH  087%=      5-min Rain = 0
KPVS 262110Z 16011G16KT 22/20 A2996 RMK A01 T02220195  RH  087%=      5-min Rain = 0
KPVS 262115Z 14012KT 22/20 A2995 RMK A01 T02220195  RH  087%=      5-min Rain = 0
KPVS 262120Z 15012G20KT 22/20 A2996 RMK A01 T02210196  RH  088%=      5-min Rain = 0
KPVS 262125Z 15012G19KT 22/19 A2995 RMK A01 T02180194  RH  088%=      5-min Rain = 0
KPVS 262130Z 16012G18KT 22/19 A2997 RMK A01 T02170194  RH  089%=      5-min Rain = 0
KPVS 262135Z 13012G17KT 22/20 A2994 RMK A01 T02150196  RH  091%=      5-min Rain = 0.02
KPVS 262140Z 13013G18KT 21/20 A2993 RMK A01 T02120198  RH  094%=      5-min Rain = 0
KPVS 262145Z 14012G20KT 21/20 A2994 RMK A01 T02110199  RH  095%=      5-min Rain = 0
KPVS 262150Z 13013G19KT 21/20 A2993 RMK A01 T02110198  RH  095%=      5-min Rain = 0
KPVS 262155Z 13013G18KT 21/20 A2992 RMK A01 T02120200  RH  095%=      5-min Rain = 0
KPVS 262200Z 14015KT 21/20 A2992 RMK A01 T02130199  RH  094%=      5-min Rain = 0
KPVS 262205Z 14014G19KT 21/20 A2993 RMK A01 T02140200  RH  094%=      5-min Rain = 0
KPVS 262210Z 14015G23KT 21/20 A2993 RMK A01 T02140199  RH  094%=      5-min Rain = 0
KPVS 262215Z 14013G19KT 21/20 A2992 RMK A01 T02140199  RH  093%=      5-min Rain = 0
KPVS 262220Z 14014G21KT 22/20 A2992 RMK A01 T02150199  RH  093%=      5-min Rain = 0
KPVS 262225Z 13015G22KT 21/20 A2991 RMK A01 T02140198  RH  093%=      5-min Rain = 0
KPVS 262230Z 15013G19KT 21/20 A2992 RMK A01 T02140199  RH  093%=      5-min Rain = 0
KPVS 262235Z 14014G22KT 22/20 A2991 RMK A01 T02150199  RH  093%=      5-min Rain = 0
KPVS 262240Z 14018G23KT 22/20 A299 RMK A01 T02150198  RH  092%=      5-min Rain = 0
KPVS 262245Z 14016G23KT 22/20 A2991 RMK A01 T02160198  RH  092%=      5-min Rain = 0
KPVS 262250Z 14017G23KT 22/20 A299 RMK A01 T02150197  RH  092%=      5-min Rain = 0
KPVS 262255Z 14017G24KT 22/20 A2989 RMK A01 T02160198  RH  092%=      5-min Rain = 0
KPVS 262300Z 14016G23KT 22/20 A2989 RMK A01 T02190201  RH  092%=      5-min Rain = 0
KPVS 262305Z 14016G24KT 22/20 A2989 RMK A01 T02200202  RH  092%=      5-min Rain = 0
KPVS 262310Z 14018G26KT 22/20 A2988 RMK A01 T02200201  RH  091%=      5-min Rain = 0
KPVS 262315Z 14019G28KT 22/20 A2989 RMK A01 T02210201  RH  091%=      5-min Rain = 0
KPVS 262320Z 14016G24KT 22/20 A2989 RMK A01 T02220201  RH  090%=      5-min Rain = 0
KPVS 262325Z 14015G23KT 22/20 A2989 RMK A01 T02230201  RH  089%=      5-min Rain = 0
KPVS 262330Z 14015G24KT 23/20 A2988 RMK A01 T02250201  RH  089%=      5-min Rain = 0
KPVS 262335Z 14015G22KT 23/20 A2988 RMK A01 T02260201  RH  088%=      5-min Rain = 0
KPVS 262340Z 15016G24KT 23/20 A2989 RMK A01 T02260199  RH  087%=      5-min Rain = 0
KPVS 262345Z 16016G25KT 23/20 A2989 RMK A01 T02250199  RH  088%=      5-min Rain = 0
KPVS 262350Z 16015G22KT 22/20 A299 RMK A01 T02240200  RH  089%=      5-min Rain = 0
KPVS 262355Z 16013G19KT 22/20 A299 RMK A01 T02240200  RH  089%=      5-min Rain = 0
KPVS 270000Z 15011G18KT 22/20 A299 RMK A01 T02240200  RH  089%=      5-min Rain = 0
KPVS 270005Z 15013G20KT 22/20 A2989 RMK A01 T02230200  RH  089%=      5-min Rain = 0
KPVS 270010Z 15014G23KT 22/20 A2989 RMK A01 T02230199  RH  089%=      5-min Rain = 0
KPVS 270015Z 15016G24KT 22/20 A2988 RMK A01 T02230198  RH  088%=      5-min Rain = 0
KPVS 270020Z 15012G18KT 22/20 A2988 RMK A01 T02230200  RH  089%=      5-min Rain = 0
KPVS 270025Z 15011G17KT 22/20 A2987 RMK A01 T02230200  RH  089%=      5-min Rain = 0
KPVS 270030Z 15012G21KT 22/20 A2987 RMK A01 T02230200  RH  089%=      5-min Rain = 0
KPVS 270035Z 15014G22KT 22/20 A2986 RMK A01 T02230199  RH  089%=      5-min Rain = 0
KPVS 270040Z 14013G19KT 22/20 A2986 RMK A01 T02230200  RH  089%=      5-min Rain = 0
KPVS 270045Z 15016G23KT 22/20 A2985 RMK A01 T02230200  RH  089%=      5-min Rain = 0
KPVS 270050Z 15013G23KT 22/20 A2985 RMK A01 T02220200  RH  089%=      5-min Rain = 0
KPVS 270055Z 15014G20KT 22/20 A2985 RMK A01 T02210199  RH  090%=      5-min Rain = 0
KPVS 270100Z 15016G23KT 22/20 A2986 RMK A01 T02210199  RH  089%=      5-min Rain = 0
KPVS 270105Z 15014G23KT 22/20 A2986 RMK A01 T02210199  RH  090%=      5-min Rain = 0
KPVS 270110Z 15015G24KT 22/20 A2985 RMK A01 T02200198  RH  090%=      5-min Rain = 0
KPVS 270115Z 15016G22KT 22/20 A2985 RMK A01 T02190198  RH  090%=      5-min Rain = 0
KPVS 270120Z 15014G23KT 22/20 A2986 RMK A01 T02180197  RH  090%=      5-min Rain = 0
KPVS 270125Z 15014G22KT 22/20 A2986 RMK A01 T02180197  RH  090%=      5-min Rain = 0
KPVS 270130Z 15013G18KT 22/20 A2986 RMK A01 T02170197  RH  091%=      5-min Rain = 0
KPVS 270135Z 15013G18KT 22/20 A2986 RMK A01 T02160196  RH  091%=      5-min Rain = 0
KPVS 270140Z 16013G20KT 22/20 A2986 RMK A01 T02160196  RH  091%=      5-min Rain = 0
KPVS 270145Z 15014G20KT 22/20 A2986 RMK A01 T02160196  RH  091%=      5-min Rain = 0
KPVS 270150Z 15013G19KT 22/20 A2986 RMK A01 T02150195  RH  090%=      5-min Rain = 0
KPVS 270155Z 15011G19KT 22/20 A2987 RMK A01 T02150195  RH  090%=      5-min Rain = 0
KPVS 270200Z 15011G16KT 22/20 A2988 RMK A01 T02150195  RH  091%=      5-min Rain = 0
KPVS 270205Z 16010KT 22/20 A2988 RMK A01 T02150195  RH  091%=      5-min Rain = 0
KPVS 270210Z 15010KT 22/19 A2988 RMK A01 T02150194  RH  091%=      5-min Rain = 0
KPVS 270215Z 15009KT 21/19 A2989 RMK A01 T02140194  RH  091%=      5-min Rain = 0
KPVS 270220Z 15009G17KT 21/19 A299 RMK A01 T02130194  RH  091%=      5-min Rain = 0
KPVS 270225Z 15008G13KT 21/19 A299 RMK A01 T02130193  RH  091%=      5-min Rain = 0
KPVS 270230Z 15008KT 21/19 A2989 RMK A01 T02120193  RH  092%=      5-min Rain = 0
KPVS 270235Z 15009KT 21/19 A2989 RMK A01 T02110193  RH  092%=      5-min Rain = 0
KPVS 270240Z 14010KT 21/19 A2989 RMK A01 T02110193  RH  092%=      5-min Rain = 0
KPVS 270245Z 15009G14KT 21/19 A2989 RMK A01 T02100192  RH  092%=      5-min Rain = 0
KPVS 270250Z 14010KT 21/19 A2989 RMK A01 T02100192  RH  092%=      5-min Rain = 0
KPVS 270255Z 14010KT 21/19 A2989 RMK A01 T02080191  RH  092%=      5-min Rain = 0
KPVS 270300Z 14010KT 21/19 A2988 RMK A01 T02070191  RH  093%=      5-min Rain = 0
KPVS 270305Z 14010KT 21/19 A2989 RMK A01 T02070190  RH  092%=      5-min Rain = 0
KPVS 270310Z 14010KT 21/19 A2989 RMK A01 T02070190  RH  092%=      5-min Rain = 0
KPVS 270315Z 14009KT 21/19 A2989 RMK A01 T02070189  RH  092%=      5-min Rain = 0
KPVS 270320Z 14011KT 21/19 A2988 RMK A01 T02070188  RH  091%=      5-min Rain = 0
KPVS 270325Z 15010KT 21/19 A2989 RMK A01 T02070188  RH  091%=      5-min Rain = 0
KPVS 270330Z 15010G16KT 21/19 A2989 RMK A01 T02080187  RH  091%=      5-min Rain = 0
KPVS 270335Z 15011KT 21/19 A2988 RMK A01 T02080187  RH  090%=      5-min Rain = 0
KPVS 270340Z 15011G16KT 21/19 A2988 RMK A01 T02080187  RH  090%=      5-min Rain = 0
KPVS 270345Z 15011KT 21/19 A2988 RMK A01 T02080186  RH  090%=      5-min Rain = 0
KPVS 270350Z 15011G16KT 21/19 A2988 RMK A01 T02070186  RH  090%=      5-min Rain = 0
KPVS 270355Z 15012G18KT 21/19 A2987 RMK A01 T02060185  RH  090%=      5-min Rain = 0
KPVS 270400Z 14012KT 21/19 A2987 RMK A01 T02060185  RH  090%=      5-min Rain = 0
KPVS 270405Z 14012G18KT 21/19 A2988 RMK A01 T02060185  RH  090%=      5-min Rain = 0
KPVS 270410Z 14011G16KT 21/19 A2988 RMK A01 T02060185  RH  090%=      5-min Rain = 0
KPVS 270415Z 15011KT 21/18 A2988 RMK A01 T02050184  RH  090%=      5-min Rain = 0
KPVS 270420Z 15011G16KT 20/18 A2988 RMK A01 T02040184  RH  090%=      5-min Rain = 0
KPVS 270425Z 15011G16KT 21/18 A2988 RMK A01 T02050184  RH  090%=      5-min Rain = 0
KPVS 270430Z 15010G15KT 20/18 A2988 RMK A01 T02040184  RH  091%=      5-min Rain = 0
KPVS 270435Z 15009KT 20/18 A2988 RMK A01 T02030184  RH  091%=      5-min Rain = 0
KPVS 270440Z 15009G14KT 20/18 A2988 RMK A01 T02020183  RH  091%=      5-min Rain = 0
KPVS 270445Z 16009KT 20/18 A2988 RMK A01 T02020183  RH  091%=      5-min Rain = 0
KPVS 270450Z 17008KT 20/18 A2988 RMK A01 T02010183  RH  092%=      5-min Rain = 0
KPVS 270455Z 18006KT 20/18 A2989 RMK A01 T02000182  RH  092%=      5-min Rain = 0

Page generated in 0.0378 seconds.